createdAt,value
2023-02-19T00:01:12.170Z,10.00
2023-02-19T00:03:41.354Z,10.67
2023-02-19T00:06:13.299Z,9.97
2023-02-19T00:08:41.704Z,8.90
2023-02-19T00:11:11.110Z,11.33
2023-02-19T00:13:40.339Z,10.17
2023-02-19T00:16:09.231Z,10.10
2023-02-19T00:18:37.970Z,8.40
2023-02-19T00:21:06.564Z,11.73
2023-02-19T00:23:36.556Z,8.10
2023-02-19T00:26:17.485Z,8.17
2023-02-19T00:28:46.876Z,7.47
2023-02-19T00:31:18.258Z,7.30
2023-02-19T00:33:46.658Z,8.20
2023-02-19T00:36:15.194Z,7.23
2023-02-19T00:38:45.169Z,6.27
2023-02-19T00:41:20.634Z,6.30
2023-02-19T00:43:50.577Z,7.20
2023-02-19T00:46:22.483Z,7.43
2023-02-19T00:48:52.681Z,6.70
2023-02-19T00:51:21.222Z,7.50
2023-02-19T00:53:51.098Z,7.53
2023-02-19T00:56:19.464Z,6.10
2023-02-19T00:58:47.792Z,7.47
2023-02-19T01:01:16.208Z,6.87
2023-02-19T01:03:44.769Z,9.50
2023-02-19T01:06:14.149Z,8.07
2023-02-19T01:08:42.876Z,8.00
2023-02-19T01:11:12.973Z,7.77
2023-02-19T01:13:41.665Z,8.33
2023-02-19T01:16:16.242Z,9.23
2023-02-19T01:18:44.904Z,9.30
2023-02-19T01:21:14.507Z,9.90
2023-02-19T01:23:42.843Z,11.47
2023-02-19T01:26:14.476Z,7.63
2023-02-19T01:28:43.286Z,9.40
2023-02-19T01:31:14.114Z,7.33
2023-02-19T01:33:42.970Z,6.57
2023-02-19T01:36:11.683Z,8.43
2023-02-19T01:38:40.026Z,5.60
2023-02-19T01:41:09.876Z,5.33
2023-02-19T01:43:53.382Z,7.63
2023-02-19T01:46:23.058Z,8.33
2023-02-19T01:48:51.575Z,11.00
2023-02-19T01:51:21.854Z,7.57
2023-02-19T01:53:52.862Z,8.57
2023-02-19T01:56:22.281Z,11.53
2023-02-19T01:58:50.647Z,7.90
2023-02-19T02:01:18.929Z,10.80
2023-02-19T02:03:49.997Z,8.50
2023-02-19T02:06:20.819Z,10.20
2023-02-19T02:09:07.071Z,13.17
2023-02-19T02:11:35.400Z,13.47
2023-02-19T02:14:04.820Z,15.53
2023-02-19T02:16:39.105Z,16.40
2023-02-19T02:19:16.768Z,14.20
2023-02-19T02:21:53.563Z,15.47
2023-02-19T02:24:40.468Z,14.27
2023-02-19T02:27:15.604Z,20.07
2023-02-19T02:30:07.788Z,19.03
2023-02-19T02:32:40.267Z,18.23
2023-02-19T02:35:10.971Z,14.50
2023-02-19T02:37:41.050Z,17.80
2023-02-19T02:40:10.193Z,15.80
2023-02-19T02:42:41.428Z,19.87
2023-02-19T02:45:37.256Z,16.37
2023-02-19T02:48:11.122Z,13.93
2023-02-19T02:50:40.587Z,20.80
2023-02-19T02:53:28.105Z,12.00
2023-02-19T02:55:56.678Z,20.00
2023-02-19T02:58:26.316Z,18.37
2023-02-19T03:01:14.101Z,22.13
2023-02-19T03:03:45.219Z,18.57
2023-02-19T03:06:14.871Z,15.40
2023-02-19T03:08:47.074Z,18.97
2023-02-19T03:11:32.496Z,15.77
2023-02-19T03:14:20.920Z,19.03
2023-02-19T03:17:07.938Z,15.87
2023-02-19T03:19:42.618Z,17.27
2023-02-19T03:22:13.859Z,19.40
2023-02-19T03:25:02.214Z,19.80
2023-02-19T03:27:31.727Z,16.50
2023-02-19T03:30:03.387Z,31.20
2023-02-19T03:32:34.267Z,14.90
2023-02-19T03:35:05.143Z,22.07
2023-02-19T03:37:35.024Z,18.20
2023-02-19T03:40:03.352Z,19.10
2023-02-19T03:42:37.792Z,25.37
2023-02-19T03:45:13.378Z,19.93
2023-02-19T03:47:45.232Z,14.30
2023-02-19T03:50:20.089Z,23.07
2023-02-19T03:52:51.955Z,15.00
2023-02-19T03:55:24.492Z,15.87
2023-02-19T03:57:55.940Z,17.30
2023-02-19T04:00:25.295Z,16.00
2023-02-19T04:02:58.451Z,21.13
2023-02-19T04:05:28.928Z,17.23
2023-02-19T04:08:00.267Z,10.00
2023-02-19T04:10:29.063Z,21.73
2023-02-19T04:12:59.418Z,19.83
2023-02-19T04:15:29.822Z,20.80
2023-02-19T04:17:59.248Z,21.23
2023-02-19T04:20:29.818Z,16.43
2023-02-19T04:22:58.749Z,18.43
2023-02-19T04:25:28.234Z,13.37
2023-02-19T04:27:56.549Z,15.00
2023-02-19T04:30:24.996Z,20.10
2023-02-19T04:32:53.305Z,22.67
2023-02-19T04:35:21.502Z,23.20
2023-02-19T04:37:51.100Z,18.73
2023-02-19T04:40:19.551Z,15.47
2023-02-19T04:42:47.775Z,11.27
2023-02-19T04:45:16.411Z,19.00
2023-02-19T04:47:44.738Z,10.40
2023-02-19T04:50:13.116Z,19.70
2023-02-19T04:52:41.434Z,25.07
2023-02-19T04:55:11.535Z,22.10
2023-02-19T04:57:39.789Z,18.10
2023-02-19T05:00:09.245Z,17.20
2023-02-19T05:02:37.532Z,21.60
2023-02-19T05:05:05.837Z,23.13
2023-02-19T05:07:34.308Z,19.37
2023-02-19T05:10:02.739Z,21.30
2023-02-19T05:12:32.818Z,19.83
2023-02-19T05:15:01.038Z,25.53
2023-02-19T05:17:29.387Z,18.70
2023-02-19T05:19:57.674Z,17.20
2023-02-19T05:22:25.911Z,20.40
2023-02-19T05:24:54.146Z,17.97
2023-02-19T05:27:22.365Z,19.93
2023-02-19T05:29:52.272Z,21.77
2023-02-19T05:32:20.524Z,29.03
2023-02-19T05:34:48.842Z,16.93
2023-02-19T05:37:17.087Z,18.50
2023-02-19T05:39:45.288Z,15.90
2023-02-19T05:42:14.844Z,20.20
2023-02-19T05:44:43.156Z,22.63
2023-02-19T05:47:12.801Z,19.53
2023-02-19T05:49:41.766Z,19.47
2023-02-19T05:52:10.264Z,14.23
2023-02-19T05:54:38.579Z,17.10
2023-02-19T05:57:06.886Z,17.43
2023-02-19T05:59:35.125Z,13.37
2023-02-19T06:02:03.323Z,19.73
2023-02-19T06:04:32.944Z,20.27
2023-02-19T06:07:01.246Z,17.93
2023-02-19T06:09:29.505Z,18.40
2023-02-19T06:11:57.776Z,15.20
2023-02-19T06:14:26.110Z,23.30
2023-02-19T06:16:54.317Z,17.63
2023-02-19T06:19:22.658Z,16.43
2023-02-19T06:21:53.005Z,26.80
2023-02-19T06:24:21.232Z,16.60
2023-02-19T06:26:49.531Z,24.30
2023-02-19T06:29:18.337Z,21.47
2023-02-19T06:31:47.298Z,20.40
2023-02-19T06:34:15.738Z,22.67
2023-02-19T06:36:44.609Z,20.30
2023-02-19T06:39:14.605Z,19.10
2023-02-19T06:41:42.875Z,20.67
2023-02-19T06:44:11.307Z,16.83
2023-02-19T06:46:47.754Z,21.63
2023-02-19T06:49:22.177Z,15.27
2023-02-19T06:51:50.732Z,18.70
2023-02-19T06:54:25.780Z,21.40
2023-02-19T06:56:54.208Z,21.70
2023-02-19T06:59:22.445Z,18.37
2023-02-19T07:01:51.011Z,24.83
2023-02-19T07:04:19.444Z,22.53
2023-02-19T07:06:47.716Z,30.33
2023-02-19T07:09:16.043Z,20.10
2023-02-19T07:11:45.621Z,21.50
2023-02-19T07:14:16.314Z,18.87
2023-02-19T07:16:44.708Z,17.40
2023-02-19T07:19:13.205Z,19.97
2023-02-19T07:21:42.300Z,25.17
2023-02-19T07:24:11.378Z,20.63
2023-02-19T07:26:39.662Z,15.07
2023-02-19T07:29:09.745Z,20.67
2023-02-19T07:31:38.237Z,19.17
2023-02-19T07:34:06.689Z,21.53
2023-02-19T07:36:34.951Z,19.53
2023-02-19T07:39:03.169Z,20.83
2023-02-19T07:41:31.497Z,18.37
2023-02-19T07:44:00.203Z,18.47
2023-02-19T07:46:30.072Z,23.90
2023-02-19T07:48:58.560Z,19.60
2023-02-19T07:51:26.836Z,15.17
2023-02-19T07:53:55.126Z,17.20
2023-02-19T07:56:23.552Z,15.20
2023-02-19T07:58:51.863Z,15.40
2023-02-19T08:01:42.129Z,18.17
2023-02-19T08:04:11.550Z,29.23
2023-02-19T08:06:39.879Z,21.37
2023-02-19T08:09:08.178Z,20.23
2023-02-19T08:11:54.304Z,20.90
2023-02-19T08:14:25.956Z,15.83
2023-02-19T08:16:54.790Z,22.90
2023-02-19T08:19:27.618Z,21.53
2023-02-19T08:21:55.883Z,25.47
2023-02-19T08:24:24.548Z,22.90
2023-02-19T08:26:52.912Z,23.97
2023-02-19T08:29:22.336Z,18.63
2023-02-19T08:31:50.731Z,9.60
2023-02-19T08:34:19.115Z,26.83
2023-02-19T08:36:48.817Z,21.40
2023-02-19T08:39:18.432Z,21.97
2023-02-19T08:41:48.321Z,32.70
2023-02-19T08:44:23.828Z,28.23
2023-02-19T08:46:52.243Z,19.33
2023-02-19T08:49:20.632Z,17.27
2023-02-19T08:51:51.804Z,12.37
2023-02-19T08:54:29.277Z,16.70
2023-02-19T08:56:57.582Z,13.50
2023-02-19T08:59:26.058Z,23.40
2023-02-19T09:01:54.307Z,13.23
2023-02-19T09:04:23.065Z,18.33
2023-02-19T09:06:51.480Z,21.43
2023-02-19T09:09:19.806Z,18.00
2023-02-19T09:11:49.448Z,18.37
2023-02-19T09:14:17.754Z,14.87
2023-02-19T09:16:45.983Z,13.17
2023-02-19T09:19:14.323Z,14.80
2023-02-19T09:21:44.089Z,17.17
2023-02-19T09:24:12.505Z,13.40
2023-02-19T09:26:40.845Z,19.77
2023-02-19T09:29:15.409Z,17.97
2023-02-19T09:31:43.822Z,14.83
2023-02-19T09:34:12.371Z,15.83
2023-02-19T09:36:40.713Z,12.40
2023-02-19T09:39:12.500Z,25.40
2023-02-19T09:41:45.256Z,18.13
2023-02-19T09:44:15.837Z,15.60
2023-02-19T09:46:45.046Z,16.37
2023-02-19T09:49:16.609Z,20.80
2023-02-19T09:51:47.012Z,15.23
2023-02-19T09:54:19.198Z,9.77
2023-02-19T09:56:47.541Z,15.00
2023-02-19T09:59:21.828Z,17.33
2023-02-19T10:02:05.878Z,19.17
2023-02-19T10:04:34.184Z,13.17
2023-02-19T10:07:03.808Z,15.53
2023-02-19T10:09:32.821Z,14.53
2023-02-19T10:12:01.238Z,17.23
2023-02-19T10:14:37.588Z,17.73
2023-02-19T10:17:06.919Z,15.10
2023-02-19T10:19:38.058Z,17.30
2023-02-19T10:22:11.466Z,24.83
2023-02-19T10:24:41.724Z,17.17
2023-02-19T10:27:13.202Z,13.07
2023-02-19T10:29:45.207Z,11.63
2023-02-19T10:32:23.708Z,12.93
2023-02-19T10:35:11.333Z,16.17
2023-02-19T10:37:43.824Z,8.13
2023-02-19T10:40:19.097Z,7.37
2023-02-19T10:42:48.676Z,14.80
2023-02-19T10:45:23.403Z,10.60
2023-02-19T10:47:52.106Z,15.10
2023-02-19T10:50:27.365Z,13.87
2023-02-19T10:52:57.346Z,19.30
2023-02-19T10:55:30.924Z,12.80
2023-02-19T10:57:59.332Z,13.43
2023-02-19T11:00:30.603Z,11.90
2023-02-19T11:03:19.884Z,14.20
2023-02-19T11:05:53.368Z,10.97
2023-02-19T11:08:23.628Z,16.73
2023-02-19T11:10:52.054Z,11.70
2023-02-19T11:13:23.764Z,13.90
2023-02-19T11:15:55.263Z,12.57
2023-02-19T11:18:24.852Z,18.63
2023-02-19T11:20:55.338Z,16.73
2023-02-19T11:23:26.301Z,9.50
2023-02-19T11:25:56.431Z,10.93
2023-02-19T11:28:28.626Z,11.90
2023-02-19T11:31:15.261Z,14.77
2023-02-19T11:33:47.289Z,12.63
2023-02-19T11:36:29.420Z,18.80
2023-02-19T11:38:59.511Z,16.17
2023-02-19T11:41:45.480Z,16.33
2023-02-19T11:44:17.896Z,7.00
2023-02-19T11:46:52.932Z,16.03
2023-02-19T11:49:26.448Z,15.37
2023-02-19T11:52:04.107Z,16.30
2023-02-19T11:54:39.776Z,11.23
2023-02-19T11:57:11.541Z,17.20
2023-02-19T11:59:45.520Z,10.20
2023-02-19T12:02:41.107Z,11.90
2023-02-19T12:05:22.907Z,10.00
2023-02-19T12:08:09.531Z,14.67
2023-02-19T12:10:44.253Z,10.73
2023-02-19T12:13:17.547Z,11.00
2023-02-19T12:15:59.471Z,8.87
2023-02-19T12:18:34.438Z,16.40
2023-02-19T12:21:09.100Z,11.80
2023-02-19T12:23:56.842Z,12.27
2023-02-19T12:26:27.962Z,10.53
2023-02-19T12:29:15.135Z,19.97
2023-02-19T12:35:33.757Z,19.43
2023-02-19T12:38:09.292Z,16.53
2023-02-19T12:40:49.243Z,11.47
2023-02-19T12:43:19.292Z,13.80
2023-02-19T12:45:50.322Z,15.23
2023-02-19T12:48:21.330Z,13.23
2023-02-19T12:50:51.238Z,7.63
2023-02-19T12:53:27.501Z,11.10
2023-02-19T12:55:56.070Z,13.20
2023-02-19T12:58:27.950Z,16.03
2023-02-19T13:00:59.117Z,13.23
2023-02-19T13:03:32.332Z,12.63
2023-02-19T13:06:07.105Z,13.47
2023-02-19T13:08:48.784Z,9.90
2023-02-19T13:11:25.071Z,10.73
2023-02-19T13:13:56.397Z,13.40
2023-02-19T13:16:25.548Z,12.43
2023-02-19T13:18:55.839Z,10.00
2023-02-19T13:21:43.706Z,13.03
2023-02-19T13:24:16.436Z,14.53
2023-02-19T13:26:55.090Z,13.13
2023-02-19T13:29:28.705Z,12.67
2023-02-19T13:32:05.939Z,17.30
2023-02-19T13:34:40.443Z,11.73
2023-02-19T13:37:09.048Z,17.80
2023-02-19T13:39:38.867Z,12.83
2023-02-19T13:42:07.220Z,15.83
2023-02-19T13:44:36.011Z,10.90
2023-02-19T13:47:06.316Z,11.60
2023-02-19T13:49:43.420Z,14.90
2023-02-19T13:52:30.814Z,13.23
2023-02-19T13:55:13.923Z,12.77
2023-02-19T13:57:44.858Z,19.53
2023-02-19T14:00:28.320Z,14.13
2023-02-19T14:03:23.210Z,12.37
2023-02-19T14:06:02.688Z,10.40
2023-02-19T14:08:52.540Z,12.53
2023-02-19T14:11:40.830Z,16.13
2023-02-19T14:14:24.217Z,13.30
2023-02-19T14:16:57.025Z,11.27
2023-02-19T14:19:44.026Z,14.40
2023-02-19T14:22:33.200Z,17.90
2023-02-19T14:25:02.217Z,9.80
2023-02-19T14:27:30.620Z,16.20
2023-02-19T14:29:58.975Z,15.43
2023-02-19T14:32:28.704Z,14.50
2023-02-19T14:34:58.177Z,12.33
2023-02-19T14:37:31.793Z,11.27
2023-02-19T14:40:00.456Z,16.20
2023-02-19T14:42:33.619Z,9.17
2023-02-19T14:45:03.714Z,13.50
2023-02-19T14:47:35.144Z,15.57
2023-02-19T14:50:05.102Z,15.30
2023-02-19T14:52:39.191Z,11.50
2023-02-19T14:55:10.052Z,11.97
2023-02-19T14:57:40.726Z,10.90
2023-02-19T15:00:22.157Z,11.43
2023-02-19T15:02:52.760Z,9.70
2023-02-19T15:05:25.549Z,10.00
2023-02-19T15:07:55.045Z,10.87
2023-02-19T15:10:23.704Z,15.07
2023-02-19T15:12:53.672Z,7.27
2023-02-19T15:15:23.750Z,10.00
2023-02-19T15:17:54.135Z,9.70
2023-02-19T15:20:25.527Z,12.93
2023-02-19T15:22:55.573Z,10.73
2023-02-19T15:25:25.464Z,9.43
2023-02-19T15:27:53.814Z,13.73
2023-02-19T15:30:24.010Z,9.63
2023-02-19T15:32:57.768Z,10.40
2023-02-19T15:35:26.871Z,6.60
2023-02-19T15:37:56.222Z,6.87
2023-02-19T15:40:27.924Z,6.67
2023-02-19T15:42:56.373Z,10.53
2023-02-19T15:45:26.344Z,9.37
2023-02-19T15:47:57.369Z,11.33
2023-02-19T15:50:28.196Z,13.43
2023-02-19T15:52:59.659Z,13.93
2023-02-19T15:55:33.841Z,13.53
2023-02-19T15:58:04.969Z,14.13
2023-02-19T16:00:36.610Z,13.33
2023-02-19T16:03:21.074Z,14.50
2023-02-19T16:06:00.835Z,12.97
2023-02-19T16:08:31.088Z,11.73
2023-02-19T16:11:00.577Z,12.37
2023-02-19T16:13:29.654Z,10.50
2023-02-19T16:16:00.208Z,11.03
2023-02-19T16:18:28.859Z,11.60
2023-02-19T16:20:57.336Z,9.97
2023-02-19T16:23:27.513Z,14.63
2023-02-19T16:25:59.805Z,14.73
2023-02-19T16:28:29.576Z,11.50
2023-02-19T16:30:58.656Z,11.10
2023-02-19T16:33:36.347Z,10.23
2023-02-19T16:36:34.899Z,13.80
2023-02-19T16:39:17.225Z,13.97
2023-02-19T16:42:09.767Z,14.83
2023-02-19T16:44:38.883Z,7.70
2023-02-19T16:47:08.645Z,11.57
2023-02-19T16:49:38.612Z,9.53
2023-02-19T16:52:06.999Z,12.27
2023-02-19T16:54:36.691Z,11.80
2023-02-19T16:57:04.941Z,14.10
2023-02-19T16:59:33.195Z,11.43
2023-02-19T17:02:01.545Z,13.70
2023-02-19T17:04:29.770Z,13.90
2023-02-19T17:06:58.074Z,13.47
2023-02-19T17:09:26.351Z,13.83
2023-02-19T17:11:56.008Z,13.37
2023-02-19T17:14:24.302Z,15.60
2023-02-19T17:16:52.540Z,16.10
2023-02-19T17:19:22.266Z,17.70
2023-02-19T17:21:50.547Z,11.10
2023-02-19T17:24:19.220Z,13.90
2023-02-19T17:26:47.679Z,11.23
2023-02-19T17:29:18.455Z,11.07
2023-02-19T17:31:46.921Z,11.43
2023-02-19T17:34:15.346Z,11.63
2023-02-19T17:36:45.488Z,10.80
2023-02-19T17:39:16.039Z,11.57
2023-02-19T17:41:44.637Z,10.87
2023-02-19T17:44:13.344Z,8.90
2023-02-19T17:46:43.656Z,10.50
2023-02-19T17:49:12.656Z,10.67
2023-02-19T17:51:40.987Z,11.47
2023-02-19T17:54:09.404Z,11.30
2023-02-19T17:56:39.930Z,9.80
2023-02-19T17:59:08.299Z,8.77
2023-02-19T18:01:36.586Z,13.67
2023-02-19T18:04:06.506Z,11.43
2023-02-19T18:06:34.916Z,13.30
2023-02-19T18:09:03.219Z,6.70
2023-02-19T18:11:31.518Z,9.43
2023-02-19T18:14:00.155Z,8.20
2023-02-19T18:16:28.462Z,10.90
2023-02-19T18:18:58.288Z,7.87
2023-02-19T18:21:28.072Z,12.20
2023-02-19T18:24:04.608Z,9.20
2023-02-19T18:26:33.685Z,10.80
2023-02-19T18:29:02.205Z,10.20
2023-02-19T18:31:33.855Z,14.53
2023-02-19T18:34:02.189Z,10.60
2023-02-19T18:36:32.258Z,10.20
2023-02-19T18:39:00.615Z,8.50
2023-02-19T18:41:29.149Z,12.10
2023-02-19T18:43:57.359Z,11.60
2023-02-19T18:46:30.051Z,14.03
2023-02-19T18:48:59.112Z,13.50
2023-02-19T18:51:27.404Z,13.60
2023-02-19T18:53:58.392Z,15.13
2023-02-19T18:56:29.360Z,9.63
2023-02-19T18:59:00.198Z,14.20
2023-02-19T19:01:28.517Z,11.97
2023-02-19T19:03:57.032Z,14.93
2023-02-19T19:06:25.311Z,15.67
2023-02-19T19:08:53.561Z,12.77
2023-02-19T19:11:23.467Z,14.47
2023-02-19T19:13:51.733Z,14.37
2023-02-19T19:16:20.365Z,14.73
2023-02-19T19:18:49.105Z,14.93
2023-02-19T19:21:17.765Z,12.13
2023-02-19T19:23:46.030Z,13.83
2023-02-19T19:26:14.611Z,11.70
2023-02-19T19:28:46.364Z,13.50
2023-02-19T19:31:15.849Z,21.80
2023-02-19T19:33:46.836Z,12.53
2023-02-19T19:36:15.465Z,13.03
2023-02-19T19:38:43.776Z,13.30
2023-02-19T19:41:15.458Z,13.27
2023-02-19T19:43:46.353Z,16.33
2023-02-19T19:46:18.942Z,12.30
2023-02-19T19:48:47.445Z,20.00
2023-02-19T19:51:15.895Z,14.60
2023-02-19T19:53:44.335Z,13.00
2023-02-19T19:56:12.633Z,11.93
2023-02-19T19:58:40.997Z,13.20
2023-02-19T20:01:11.276Z,16.03
2023-02-19T20:03:40.140Z,12.37
2023-02-19T20:06:08.719Z,10.23
2023-02-19T20:08:36.955Z,15.67
2023-02-19T20:11:07.497Z,13.47
2023-02-19T20:13:36.195Z,15.27
2023-02-19T20:16:04.745Z,10.10
2023-02-19T20:18:35.989Z,10.93
2023-02-19T20:21:04.408Z,8.37
2023-02-19T20:23:33.278Z,12.27
2023-02-19T20:26:01.595Z,14.13
2023-02-19T20:28:31.945Z,12.37
2023-02-19T20:31:00.296Z,9.40
2023-02-19T20:33:28.678Z,11.33
2023-02-19T20:35:58.325Z,12.27
2023-02-19T20:38:26.621Z,9.33
2023-02-19T20:40:54.906Z,9.70
2023-02-19T20:43:23.243Z,12.90
2023-02-19T20:45:51.626Z,10.60
2023-02-19T20:48:20.059Z,10.80
2023-02-19T20:50:48.501Z,12.93
2023-02-19T20:53:18.269Z,14.07
2023-02-19T20:55:46.551Z,14.17
2023-02-19T20:58:15.839Z,15.70
2023-02-19T21:00:44.279Z,12.80
2023-02-19T21:03:14.546Z,12.40
2023-02-19T21:05:43.942Z,12.67
2023-02-19T21:08:13.945Z,12.00
2023-02-19T21:10:43.640Z,12.50
2023-02-19T21:13:12.135Z,10.90
2023-02-19T21:15:40.642Z,13.47
2023-02-19T21:18:09.048Z,14.17
2023-02-19T21:20:37.621Z,11.03
2023-02-19T21:23:05.995Z,8.67
2023-02-19T21:25:34.314Z,9.03
2023-02-19T21:28:08.924Z,12.60
2023-02-19T21:30:37.416Z,16.00
2023-02-19T21:33:06.265Z,14.57
2023-02-19T21:35:34.583Z,11.80
2023-02-19T21:38:03.027Z,11.83
2023-02-19T21:40:33.003Z,9.10
2023-02-19T21:43:01.786Z,14.57
2023-02-19T21:45:31.475Z,10.87
2023-02-19T21:47:59.809Z,11.83
2023-02-19T21:50:28.116Z,16.13
2023-02-19T21:52:56.518Z,15.57
2023-02-19T21:55:24.923Z,14.60
2023-02-19T21:57:54.399Z,11.50
2023-02-19T22:00:22.958Z,13.97
2023-02-19T22:02:52.574Z,18.80
2023-02-19T22:05:21.113Z,18.10
2023-02-19T22:07:50.125Z,18.50
2023-02-19T22:10:18.869Z,15.30
2023-02-19T22:12:47.171Z,14.10
2023-02-19T22:15:15.827Z,16.77
2023-02-19T22:17:44.028Z,13.70
2023-02-19T22:20:13.917Z,12.83
2023-02-19T22:22:42.336Z,16.40
2023-02-19T22:25:10.606Z,12.17
2023-02-19T22:27:38.887Z,15.20
2023-02-19T22:30:08.002Z,11.83
2023-02-19T22:32:36.432Z,12.23
2023-02-19T22:35:04.774Z,18.23
2023-02-19T22:37:34.452Z,10.80
2023-02-19T22:40:02.993Z,10.27
2023-02-19T22:42:31.319Z,11.77
2023-02-19T22:44:59.555Z,11.10
2023-02-19T22:47:27.832Z,10.70
2023-02-19T22:49:56.036Z,13.07
2023-02-19T22:52:27.916Z,14.53
2023-02-19T22:54:57.691Z,10.83
2023-02-19T22:57:25.969Z,13.33
2023-02-19T22:59:54.216Z,11.77
2023-02-19T23:02:22.512Z,11.07
2023-02-19T23:04:50.792Z,11.70
2023-02-19T23:07:19.008Z,16.13
2023-02-19T23:09:47.239Z,12.90
2023-02-19T23:12:16.834Z,16.90
2023-02-19T23:14:45.083Z,16.10
2023-02-19T23:17:13.297Z,14.20
2023-02-19T23:19:41.599Z,20.20
2023-02-19T23:22:10.051Z,16.50
2023-02-19T23:24:38.315Z,17.70
2023-02-19T23:27:06.611Z,15.97
2023-02-19T23:29:36.453Z,17.80
2023-02-19T23:32:06.175Z,18.47
2023-02-19T23:34:37.455Z,16.77
2023-02-19T23:37:06.678Z,18.30
2023-02-19T23:39:34.916Z,19.17
2023-02-19T23:42:03.182Z,16.90
2023-02-19T23:44:31.432Z,19.37
2023-02-19T23:47:01.044Z,18.17
2023-02-19T23:49:29.298Z,19.40
2023-02-19T23:51:57.742Z,17.20
2023-02-19T23:54:25.962Z,18.43
2023-02-19T23:56:57.388Z,15.30
2023-02-19T23:59:25.698Z,16.13
